Time,TemperatureF,DewpointF,PressureIn,WindDirection,WindDirectionDegrees,WindSpeedMPH,WindSpeedGustMPH,Humidity,HourlyPrecipIn,Conditions,Clouds,dailyrainin,SoftwareType,DateUTC
2013-05-19 00:00:00,75.2,31.3,29.89,South,180,1.0,5.0,20,0.00,,,-99.99,WeatherLink 5.7,2013-05-19 05:00:00,
2013-05-19 00:30:00,75.0,31.2,29.89,South,180,1.0,6.0,20,0.00,,,-99.99,WeatherLink 5.7,2013-05-19 05:30:00,
2013-05-19 01:00:00,75.3,31.4,29.88,SE,135,0.0,6.0,20,0.00,,,-99.99,WeatherLink 5.7,2013-05-19 06:00:00,
2013-05-19 01:30:00,75.2,31.3,29.87,SE,135,1.0,4.0,20,0.00,,,-99.99,WeatherLink 5.7,2013-05-19 06:30:00,
2013-05-19 02:00:00,75.2,31.3,29.86,SE,135,0.0,3.0,20,0.00,,,-99.99,WeatherLink 5.7,2013-05-19 07:00:00,
2013-05-19 02:30:00,74.8,32.2,29.86,SE,135,0.0,2.0,21,0.00,,,-99.99,WeatherLink 5.7,2013-05-19 07:30:00,
2013-05-19 03:00:00,74.4,31.9,29.86,SE,135,0.0,2.0,21,0.00,,,-99.99,WeatherLink 5.7,2013-05-19 08:00:00,
2013-05-19 03:30:00,74.2,31.7,29.87,SE,135,0.0,4.0,21,0.00,,,-99.99,WeatherLink 5.7,2013-05-19 08:30:00,
2013-05-19 04:00:00,73.5,31.1,29.88,SE,135,0.0,3.0,21,0.00,,,-99.99,WeatherLink 5.7,2013-05-19 09:00:00,
2013-05-19 04:30:00,73.1,30.8,29.88,North,-999,0.0,0.0,21,0.00,,,-99.99,WeatherLink 5.7,2013-05-19 09:30:00,
2013-05-19 05:00:00,72.6,31.5,29.88,North,-999,0.0,0.0,22,0.00,,,-99.99,WeatherLink 5.7,2013-05-19 10:00:00,
2013-05-19 05:30:00,72.0,31.0,29.89,North,-999,0.0,0.0,22,0.00,,,-99.99,WeatherLink 5.7,2013-05-19 10:30:00,
2013-05-19 06:00:00,71.6,30.7,29.90,North,-999,0.0,0.0,22,0.00,,,-99.99,WeatherLink 5.7,2013-05-19 11:00:00,
2013-05-19 06:30:00,71.6,30.7,29.90,North,-999,0.0,0.0,22,0.00,,,-99.99,WeatherLink 5.7,2013-05-19 11:30:00,
2013-05-19 07:00:00,73.3,32.1,29.90,North,-999,0.0,0.0,22,0.00,,,-99.99,WeatherLink 5.7,2013-05-19 12:00:00,
2013-05-19 07:30:00,74.9,33.5,29.90,North,-999,0.0,0.0,22,0.00,,,-99.99,WeatherLink 5.7,2013-05-19 12:30:00,
2013-05-19 08:00:00,76.2,34.6,29.90,SSE,157,1.0,6.0,22,0.00,,,-99.99,WeatherLink 5.7,2013-05-19 13:00:00,
2013-05-19 08:30:00,77.4,34.4,29.90,South,180,2.0,9.0,21,0.00,,,-99.99,WeatherLink 5.7,2013-05-19 13:30:00,
2013-05-19 09:00:00,79.4,33.5,29.90,SSE,157,3.0,11.0,19,0.00,,,-99.99,WeatherLink 5.7,2013-05-19 14:00:00,
2013-05-19 09:30:00,80.5,30.2,29.91,South,180,3.0,11.0,16,0.00,,,-99.99,WeatherLink 5.7,2013-05-19 14:30:00,
2013-05-19 10:00:00,81.1,34.9,29.91,SSE,157,3.0,9.0,19,0.00,,,-99.99,WeatherLink 5.7,2013-05-19 15:00:00,
2013-05-19 10:30:00,81.5,39.0,29.91,SSE,157,3.0,10.0,22,0.00,,,-99.99,WeatherLink 5.7,2013-05-19 15:30:00,
2013-05-19 11:00:00,83.3,50.4,29.91,SSE,157,2.0,10.0,32,0.00,,,-99.99,WeatherLink 5.7,2013-05-19 16:00:00,
2013-05-19 11:30:00,82.4,51.2,29.91,SSE,157,3.0,10.0,34,0.00,,,-99.99,WeatherLink 5.7,2013-05-19 16:30:00,
2013-05-19 12:00:00,82.1,49.3,29.91,South,180,3.0,10.0,32,0.00,,,-99.99,WeatherLink 5.7,2013-05-19 17:00:00,
2013-05-19 12:30:00,82.8,51.6,29.90,South,180,3.0,11.0,34,0.00,,,-99.99,WeatherLink 5.7,2013-05-19 17:30:00,
2013-05-19 13:00:00,83.7,55.4,29.90,SSW,202,3.0,10.0,38,0.00,,,-99.99,WeatherLink 5.7,2013-05-19 18:00:00,
2013-05-19 13:30:00,83.5,53.7,29.89,SSE,157,3.0,11.0,36,0.00,,,-99.99,WeatherLink 5.7,2013-05-19 18:30:00,
2013-05-19 14:00:00,83.4,52.1,29.89,SSE,157,2.0,9.0,34,0.00,,,-99.99,WeatherLink 5.7,2013-05-19 19:00:00,
2013-05-19 14:30:00,82.8,50.8,29.88,SSE,157,2.0,9.0,33,0.00,,,-99.99,WeatherLink 5.7,2013-05-19 19:30:00,
2013-05-19 15:00:00,82.8,49.1,29.88,SSE,157,2.0,10.0,31,0.00,,,-99.99,WeatherLink 5.7,2013-05-19 20:00:00,
2013-05-19 15:30:00,83.3,50.4,29.87,SE,135,2.0,10.0,32,0.00,,,-99.99,WeatherLink 5.7,2013-05-19 20:30:00,
2013-05-19 16:00:00,82.7,49.8,29.87,SE,135,2.0,6.0,32,0.00,,,-99.99,WeatherLink 5.7,2013-05-19 21:00:00,
2013-05-19 16:30:00,82.3,45.0,29.85,South,180,1.0,6.0,27,0.00,,,-99.99,WeatherLink 5.7,2013-05-19 21:30:00,
2013-05-19 17:00:00,82.1,43.8,29.86,SE,135,1.0,5.0,26,0.00,,,-99.99,WeatherLink 5.7,2013-05-19 22:00:00,
2013-05-19 17:30:00,81.7,42.4,29.86,South,180,1.0,6.0,25,0.00,,,-99.99,WeatherLink 5.7,2013-05-19 22:30:00,
2013-05-19 18:00:00,81.4,40.0,29.86,South,180,1.0,6.0,23,0.00,,,-99.99,WeatherLink 5.7,2013-05-19 23:00:00,
2013-05-19 18:30:00,80.9,38.5,29.86,SE,135,1.0,6.0,22,0.00,,,-99.99,WeatherLink 5.7,2013-05-19 23:30:00,
2013-05-19 19:00:00,80.3,34.3,29.86,SE,135,1.0,6.0,19,0.00,,,-99.99,WeatherLink 5.7,2013-05-20 00:00:00,
2013-05-19 19:30:00,79.0,31.9,29.87,SE,135,1.0,5.0,18,0.00,,,-99.99,WeatherLink 5.7,2013-05-20 00:30:00,
2013-05-19 20:00:00,78.0,29.6,29.87,SSE,157,1.0,6.0,17,0.00,,,-99.99,WeatherLink 5.7,2013-05-20 01:00:00,
2013-05-19 20:30:00,77.2,29.0,29.88,SE,135,0.0,5.0,17,0.00,,,-99.99,WeatherLink 5.7,2013-05-20 01:30:00,
2013-05-19 21:00:00,76.5,28.4,29.89,SE,135,0.0,1.0,17,0.00,,,-99.99,WeatherLink 5.7,2013-05-20 02:00:00,
2013-05-19 21:30:00,75.7,29.2,29.89,North,-999,0.0,0.0,18,0.00,,,-99.99,WeatherLink 5.7,2013-05-20 02:30:00,
2013-05-19 22:00:00,74.9,29.8,29.89,North,-999,0.0,0.0,19,0.00,,,-99.99,WeatherLink 5.7,2013-05-20 03:00:00,
2013-05-19 22:30:00,74.4,29.4,29.89,North,-999,0.0,0.0,19,0.00,,,-99.99,WeatherLink 5.7,2013-05-20 03:30:00,
2013-05-19 23:00:00,74.2,30.5,29.88,SE,135,0.0,4.0,20,0.00,,,-99.99,WeatherLink 5.7,2013-05-20 04:00:00,
2013-05-19 23:30:00,73.9,30.3,29.89,SE,135,0.0,3.0,20,0.00,,,-99.99,WeatherLink 5.7,2013-05-20 04:30:00,